createdAt,value
2022-11-25T10:23:39.771Z,94940.00
2022-11-25T10:23:51.073Z,94940.00
2022-11-25T10:24:02.627Z,94942.00
2022-11-25T10:24:13.925Z,94944.00
2022-11-25T10:24:25.473Z,94942.00
2022-11-25T10:24:41.099Z,94942.00
2022-11-25T10:24:48.486Z,94946.00
2022-11-25T10:24:59.768Z,94944.00
2022-11-25T10:25:11.336Z,94944.00
2022-11-25T10:25:22.634Z,94940.00
2022-11-25T10:25:34.220Z,94948.00
2022-11-25T10:25:45.535Z,94944.00
2022-11-25T10:25:57.102Z,94944.00
2022-11-25T10:26:08.463Z,94942.00
2022-11-25T10:26:20.116Z,94944.00
2022-11-25T10:26:31.416Z,94944.00
2022-11-25T10:26:43.271Z,94946.00
2022-11-25T10:26:54.615Z,94942.00
2022-11-25T10:27:06.235Z,94942.00
2022-11-25T10:27:17.563Z,94942.00
2022-11-25T10:27:29.118Z,94940.00
2022-11-25T10:27:40.426Z,94940.00
2022-11-25T10:27:52.141Z,94942.00
2022-11-25T10:28:03.425Z,94940.00
2022-11-25T10:28:14.961Z,94942.00
2022-11-25T10:28:26.243Z,94942.00
2022-11-25T10:28:37.790Z,94940.00
2022-11-25T10:28:49.127Z,94938.00
2022-11-25T10:29:00.682Z,94940.00
2022-11-25T10:29:11.966Z,94938.00
2022-11-25T10:29:23.517Z,94938.00
2022-11-25T10:29:34.804Z,94940.00
2022-11-25T10:29:46.357Z,94938.00
2022-11-25T10:29:57.653Z,94942.00
2022-11-25T10:30:09.204Z,94940.00
2022-11-25T10:30:20.498Z,94942.00
2022-11-25T10:30:32.047Z,94938.00
2022-11-25T10:30:43.316Z,94942.00
2022-11-25T10:30:54.944Z,94940.00
2022-11-25T10:31:06.368Z,94942.00
2022-11-25T10:31:18.068Z,94944.00
2022-11-25T10:31:29.469Z,94940.00
2022-11-25T10:31:41.100Z,94940.00
2022-11-25T10:31:52.462Z,94940.00
2022-11-25T10:32:04.038Z,94942.00
2022-11-25T10:32:15.314Z,94942.00
2022-11-25T10:32:26.844Z,94944.00
2022-11-25T10:32:38.133Z,94942.00
2022-11-25T10:32:49.684Z,94942.00
2022-11-25T10:33:02.694Z,94942.00
2022-11-25T10:33:11.935Z,94940.00
2022-11-25T10:33:23.487Z,94940.00
2022-11-25T10:33:34.798Z,94940.00
2022-11-25T10:33:46.587Z,94942.00
2022-11-25T10:33:57.922Z,94942.00
2022-11-25T10:34:09.467Z,94940.00
2022-11-25T10:34:20.759Z,94940.00
2022-11-25T10:34:32.306Z,94942.00
2022-11-25T10:34:43.594Z,94940.00
2022-11-25T10:34:55.138Z,94940.00
2022-11-25T10:35:06.417Z,94942.00
2022-11-25T10:35:17.948Z,94942.00
2022-11-25T10:35:29.230Z,94940.00
2022-11-25T10:35:40.784Z,94942.00
2022-11-25T10:35:52.072Z,94940.00
2022-11-25T10:36:03.604Z,94940.00
2022-11-25T10:36:14.881Z,94940.00
2022-11-25T10:36:26.411Z,94942.00
2022-11-25T10:36:37.696Z,94938.00
2022-11-25T10:36:49.232Z,94942.00
2022-11-25T10:37:00.508Z,94940.00
2022-11-25T10:37:12.048Z,94940.00
2022-11-25T10:37:23.343Z,94948.00
2022-11-25T10:37:34.901Z,94944.00
2022-11-25T10:37:46.194Z,94946.00
2022-11-25T10:37:57.730Z,94946.00
2022-11-25T10:38:09.007Z,94946.00
2022-11-25T10:38:20.536Z,94944.00
2022-11-25T10:38:31.819Z,94944.00
2022-11-25T10:38:43.406Z,94944.00
2022-11-25T10:38:54.706Z,94946.00
2022-11-25T10:39:06.295Z,94946.00
2022-11-25T10:39:17.572Z,94946.00
2022-11-25T10:39:29.129Z,94948.00
2022-11-25T10:39:40.418Z,94948.00
2022-11-25T10:39:51.960Z,94944.00
2022-11-25T10:40:03.234Z,94946.00
2022-11-25T10:40:14.773Z,94946.00
2022-11-25T10:40:26.062Z,94946.00
2022-11-25T10:40:37.604Z,94948.00
2022-11-25T10:40:48.899Z,94946.00
2022-11-25T10:41:00.435Z,94946.00
2022-11-25T10:41:11.715Z,94946.00
2022-11-25T10:41:23.259Z,94944.00
2022-11-25T10:41:34.532Z,94944.00
2022-11-25T10:41:46.073Z,94944.00
2022-11-25T10:41:57.359Z,94944.00
2022-11-25T10:42:08.902Z,94944.00
2022-11-25T10:42:20.189Z,94942.00
2022-11-25T10:42:31.731Z,94942.00
2022-11-25T10:42:43.025Z,94944.00
2022-11-25T10:42:54.573Z,94944.00
2022-11-25T10:43:05.869Z,94940.00
2022-11-25T10:43:17.420Z,94944.00
2022-11-25T10:43:31.852Z,94944.00
2022-11-25T10:43:39.592Z,94942.00
2022-11-25T10:43:50.881Z,94942.00
2022-11-25T10:44:02.420Z,94942.00
2022-11-25T10:44:13.742Z,94942.00
2022-11-25T10:44:25.295Z,94942.00
2022-11-25T10:44:36.814Z,94942.00
2022-11-25T10:44:48.682Z,94944.00
2022-11-25T10:44:59.968Z,94942.00
2022-11-25T10:45:11.508Z,94944.00
2022-11-25T10:45:22.796Z,94944.00
2022-11-25T10:45:34.342Z,94948.00
2022-11-25T10:45:45.632Z,94946.00
2022-11-25T10:45:57.186Z,94950.00
2022-11-25T10:46:08.515Z,94948.00
2022-11-25T10:46:20.194Z,94950.00
2022-11-25T10:46:56.892Z,94948.00
2022-11-25T10:47:12.315Z,94952.00
2022-11-25T10:47:13.453Z,94950.00
2022-11-25T10:47:15.234Z,94944.00
2022-11-25T10:47:19.298Z,94952.00
2022-11-25T10:47:30.731Z,94948.00
2022-11-25T10:47:42.371Z,94948.00
2022-11-25T10:47:53.804Z,94950.00
2022-11-25T10:48:05.400Z,94950.00
2022-11-25T10:48:16.685Z,94950.00
2022-11-25T10:48:28.227Z,94950.00
2022-11-25T10:48:44.020Z,94948.00
2022-11-25T10:48:51.457Z,94948.00
2022-11-25T10:49:02.748Z,94950.00
2022-11-25T10:49:14.333Z,94948.00
2022-11-25T10:49:25.639Z,94946.00
2022-11-25T10:49:37.185Z,94948.00
2022-11-25T10:49:48.460Z,94946.00
2022-11-25T10:50:00.525Z,94948.00
2022-11-25T10:50:12.073Z,94948.00
2022-11-25T10:50:23.352Z,94946.00
2022-11-25T10:50:34.907Z,94946.00
2022-11-25T10:50:46.196Z,94948.00
2022-11-25T10:50:57.751Z,94948.00
2022-11-25T10:51:09.035Z,94950.00
2022-11-25T10:51:20.580Z,94948.00
2022-11-25T10:51:31.851Z,94948.00
2022-11-25T10:51:43.385Z,94946.00
2022-11-25T10:51:54.666Z,94950.00
2022-11-25T10:52:06.215Z,94948.00
2022-11-25T10:52:17.500Z,94950.00
2022-11-25T10:52:29.037Z,94948.00
2022-11-25T10:52:40.312Z,94948.00
2022-11-25T10:52:51.859Z,94952.00
2022-11-25T10:53:03.152Z,94950.00
2022-11-25T10:53:14.696Z,94952.00
2022-11-25T10:53:25.974Z,94950.00
2022-11-25T10:53:37.517Z,94950.00
2022-11-25T10:53:48.833Z,94950.00
2022-11-25T10:54:00.399Z,94952.00
2022-11-25T10:54:11.685Z,94950.00
2022-11-25T10:54:27.598Z,94950.00
2022-11-25T10:54:35.054Z,94952.00
2022-11-25T10:54:46.355Z,94952.00
2022-11-25T10:54:57.928Z,94952.00
2022-11-25T10:55:09.219Z,94952.00
2022-11-25T10:55:20.774Z,94950.00
2022-11-25T10:55:32.086Z,94952.00
2022-11-25T10:55:43.630Z,94952.00
2022-11-25T10:55:54.928Z,94952.00
2022-11-25T10:56:06.483Z,94950.00
2022-11-25T10:56:17.773Z,94950.00
2022-11-25T10:56:29.314Z,94952.00
2022-11-25T10:56:40.599Z,94948.00
2022-11-25T10:56:52.162Z,94948.00
2022-11-25T10:57:03.460Z,94950.00
2022-11-25T10:57:15.005Z,94948.00
2022-11-25T10:57:26.291Z,94946.00
2022-11-25T10:57:37.823Z,94950.00
2022-11-25T10:57:49.102Z,94944.00
2022-11-25T10:58:00.655Z,94944.00
2022-11-25T10:58:11.937Z,94944.00
2022-11-25T10:58:23.474Z,94942.00
2022-11-25T10:58:34.761Z,94942.00
2022-11-25T10:58:46.291Z,94940.00
2022-11-25T10:58:57.587Z,94942.00
2022-11-25T10:59:09.141Z,94940.00
2022-11-25T10:59:20.440Z,94942.00
2022-11-25T10:59:32.051Z,94942.00
2022-11-25T10:59:43.345Z,94940.00
2022-11-25T10:59:54.894Z,94940.00
2022-11-25T11:00:06.192Z,94938.00
2022-11-25T11:00:17.761Z,94938.00
2022-11-25T11:00:29.054Z,94942.00
2022-11-25T11:00:40.588Z,94940.00
2022-11-25T11:00:51.883Z,94942.00
2022-11-25T11:01:03.437Z,94940.00
2022-11-25T11:01:14.888Z,94940.00
2022-11-25T11:01:26.553Z,94940.00
2022-11-25T11:01:37.966Z,94940.00
2022-11-25T11:01:49.571Z,94942.00
2022-11-25T11:02:00.978Z,94940.00
2022-11-25T11:02:12.640Z,94938.00
2022-11-25T11:02:24.031Z,94940.00
2022-11-25T11:02:35.694Z,94940.00
2022-11-25T11:02:47.129Z,94940.00
2022-11-25T11:02:58.807Z,94940.00
2022-11-25T11:03:10.212Z,94938.00
2022-11-25T11:03:21.842Z,94940.00
2022-11-25T11:03:33.189Z,94940.00
2022-11-25T11:03:44.734Z,94942.00
2022-11-25T11:03:56.015Z,94938.00
2022-11-25T11:04:07.548Z,94938.00
2022-11-25T11:04:18.836Z,94938.00
2022-11-25T11:04:30.377Z,94940.00
2022-11-25T11:04:41.680Z,94936.00
2022-11-25T11:04:53.213Z,94938.00
2022-11-25T11:05:04.582Z,94938.00
2022-11-25T11:05:16.118Z,94936.00
2022-11-25T11:05:27.412Z,94934.00
2022-11-25T11:05:42.443Z,94934.00
2022-11-25T11:05:50.873Z,94938.00
2022-11-25T11:06:02.147Z,94934.00
2022-11-25T11:06:13.689Z,94933.00
2022-11-25T11:06:24.980Z,94931.00
2022-11-25T11:06:36.527Z,94934.00
2022-11-25T11:06:47.811Z,94931.00
2022-11-25T11:06:59.358Z,94931.00
2022-11-25T11:07:10.695Z,94931.00
2022-11-25T11:07:22.307Z,94929.00
2022-11-25T11:07:33.704Z,94929.00
2022-11-25T11:07:45.429Z,94929.00
2022-11-25T11:07:56.893Z,94929.00
2022-11-25T11:08:08.493Z,94927.00
2022-11-25T11:08:19.798Z,94927.00
2022-11-25T11:08:31.349Z,94929.00
2022-11-25T11:08:42.642Z,94927.00
2022-11-25T11:08:54.215Z,94927.00
2022-11-25T11:09:05.492Z,94927.00
2022-11-25T11:09:17.016Z,94929.00
2022-11-25T11:09:28.293Z,94927.00
2022-11-25T11:09:39.825Z,94929.00
2022-11-25T11:09:51.128Z,94927.00
2022-11-25T11:10:02.686Z,94927.00
2022-11-25T11:10:13.994Z,94927.00
2022-11-25T11:10:25.524Z,94927.00
2022-11-25T11:10:36.813Z,94927.00
2022-11-25T11:10:52.928Z,94931.00
2022-11-25T11:11:00.292Z,94927.00
2022-11-25T11:11:11.616Z,94925.00
2022-11-25T11:11:23.164Z,94925.00
2022-11-25T11:11:34.443Z,94929.00
2022-11-25T11:11:45.984Z,94927.00
2022-11-25T11:11:57.268Z,94927.00
2022-11-25T11:12:08.813Z,94927.00
2022-11-25T11:12:20.099Z,94927.00
2022-11-25T11:12:31.647Z,94925.00
2022-11-25T11:12:42.934Z,94927.00
2022-11-25T11:12:54.485Z,94927.00
2022-11-25T11:13:05.791Z,94929.00
2022-11-25T11:13:17.330Z,94929.00
2022-11-25T11:13:28.624Z,94929.00
2022-11-25T11:13:40.167Z,94925.00
2022-11-25T11:13:51.449Z,94927.00
2022-11-25T11:14:02.987Z,94929.00
2022-11-25T11:14:14.267Z,94929.00
2022-11-25T11:14:25.820Z,94927.00
2022-11-25T11:14:37.407Z,94925.00
2022-11-25T11:14:49.245Z,94927.00
2022-11-25T11:15:00.557Z,94927.00
2022-11-25T11:15:12.092Z,94927.00
2022-11-25T11:15:23.379Z,94923.00
2022-11-25T11:15:34.916Z,94925.00
2022-11-25T11:15:46.272Z,94925.00
2022-11-25T11:15:57.984Z,94923.00
2022-11-25T11:16:09.378Z,94923.00
2022-11-25T11:16:21.164Z,94923.00
2022-11-25T11:16:32.538Z,94923.00
2022-11-25T11:16:44.191Z,94921.00
2022-11-25T11:16:55.519Z,94923.00
2022-11-25T11:17:07.064Z,94921.00
2022-11-25T11:17:18.359Z,94919.00
2022-11-25T11:17:35.854Z,94919.00
2022-11-25T11:17:41.834Z,94919.00
2022-11-25T11:17:53.120Z,94921.00
2022-11-25T11:18:04.662Z,94917.00
2022-11-25T11:18:15.951Z,94919.00
2022-11-25T11:18:27.487Z,94919.00
2022-11-25T11:18:38.769Z,94915.00
2022-11-25T11:18:50.312Z,94919.00
2022-11-25T11:19:01.596Z,94915.00
2022-11-25T11:19:13.142Z,94917.00
2022-11-25T11:19:24.422Z,94915.00
2022-11-25T11:19:35.972Z,94915.00
2022-11-25T11:19:47.257Z,94915.00
2022-11-25T11:19:58.806Z,94913.00
2022-11-25T11:20:10.129Z,94917.00
2022-11-25T11:20:21.661Z,94915.00
2022-11-25T11:20:32.949Z,94915.00
2022-11-25T11:20:44.516Z,94911.00
2022-11-25T11:20:55.823Z,94913.00
2022-11-25T11:21:07.377Z,94911.00
2022-11-25T11:21:18.676Z,94909.00
2022-11-25T11:21:30.228Z,94907.00
2022-11-25T11:21:41.518Z,94909.00
2022-11-25T11:21:53.059Z,94911.00
2022-11-25T11:22:04.346Z,94911.00
2022-11-25T11:22:15.890Z,94909.00
2022-11-25T11:22:27.180Z,94909.00
2022-11-25T11:22:38.737Z,94907.00
2022-11-25T11:22:50.032Z,94907.00
2022-11-25T11:23:07.040Z,94907.00
2022-11-25T11:23:13.510Z,94907.00
2022-11-25T11:23:24.795Z,94905.00
2022-11-25T11:23:36.326Z,94905.00
2022-11-25T11:23:47.604Z,94905.00
2022-11-25T11:23:59.165Z,94905.00
2022-11-25T11:24:10.449Z,94905.00
2022-11-25T11:24:21.994Z,94905.00
2022-11-25T11:24:33.267Z,94905.00
2022-11-25T11:24:44.798Z,94901.00
2022-11-25T11:24:56.081Z,94905.00
2022-11-25T11:25:07.616Z,94905.00
2022-11-25T11:25:19.113Z,94905.00
2022-11-25T11:25:30.661Z,94905.00
2022-11-25T11:25:41.945Z,94903.00
2022-11-25T11:25:53.494Z,94903.00
2022-11-25T11:26:04.782Z,94901.00
2022-11-25T11:26:16.335Z,94901.00
2022-11-25T11:26:27.646Z,94901.00
2022-11-25T11:26:39.190Z,94901.00
2022-11-25T11:26:50.481Z,94901.00
2022-11-25T11:27:02.033Z,94901.00
2022-11-25T11:27:13.338Z,94903.00
2022-11-25T11:27:24.893Z,94901.00
2022-11-25T11:27:36.184Z,94901.00
2022-11-25T11:27:47.724Z,94903.00
2022-11-25T11:27:59.009Z,94903.00
2022-11-25T11:28:10.557Z,94899.00
2022-11-25T11:28:21.836Z,94901.00
2022-11-25T11:28:33.376Z,94899.00
2022-11-25T11:28:44.664Z,94899.00
2022-11-25T11:28:56.202Z,94905.00
2022-11-25T11:29:13.870Z,94905.00
2022-11-25T11:29:19.412Z,94901.00
2022-11-25T11:29:30.697Z,94901.00
2022-11-25T11:29:42.241Z,94905.00
2022-11-25T11:29:53.528Z,94905.00
2022-11-25T11:30:05.080Z,94905.00
2022-11-25T11:30:16.372Z,94903.00
2022-11-25T11:30:27.936Z,94905.00
2022-11-25T11:30:39.210Z,94905.00
2022-11-25T11:30:50.985Z,94905.00
2022-11-25T11:31:02.396Z,94905.00
2022-11-25T11:31:14.035Z,94905.00
2022-11-25T11:31:25.477Z,94909.00
2022-11-25T11:31:37.143Z,94907.00
2022-11-25T11:31:48.551Z,94903.00
2022-11-25T11:32:00.146Z,94907.00
2022-11-25T11:32:11.432Z,94907.00
2022-11-25T11:32:22.995Z,94907.00
2022-11-25T11:32:34.269Z,94905.00
2022-11-25T11:32:45.823Z,94907.00
2022-11-25T11:32:57.103Z,94905.00
2022-11-25T11:33:08.654Z,94907.00
2022-11-25T11:33:19.945Z,94909.00
2022-11-25T11:33:31.501Z,94905.00
2022-11-25T11:33:42.807Z,94905.00
2022-11-25T11:33:54.358Z,94907.00
2022-11-25T11:34:05.645Z,94907.00
2022-11-25T11:34:17.196Z,94905.00
2022-11-25T11:34:28.507Z,94905.00
2022-11-25T11:34:40.068Z,94903.00
2022-11-25T11:34:51.354Z,94903.00
2022-11-25T11:35:02.904Z,94903.00
2022-11-25T11:35:14.201Z,94903.00
2022-11-25T11:35:25.751Z,94905.00
2022-11-25T11:35:41.647Z,94901.00
2022-11-25T11:35:48.968Z,94901.00
2022-11-25T11:36:00.254Z,94901.00
2022-11-25T11:36:11.792Z,94901.00
2022-11-25T11:36:23.068Z,94899.00
2022-11-25T11:36:34.619Z,94901.00
2022-11-25T11:36:45.900Z,94899.00
2022-11-25T11:36:57.456Z,94901.00
2022-11-25T11:37:08.741Z,94901.00
2022-11-25T11:37:20.280Z,94897.00
2022-11-25T11:37:31.578Z,94899.00
2022-11-25T11:37:43.131Z,94899.00
2022-11-25T11:37:54.418Z,94901.00
2022-11-25T11:38:05.949Z,94899.00
2022-11-25T11:38:17.227Z,94899.00
2022-11-25T11:38:28.769Z,94899.00
2022-11-25T11:38:40.053Z,94899.00
2022-11-25T11:38:51.599Z,94897.00
2022-11-25T11:39:02.928Z,94897.00
2022-11-25T11:39:14.472Z,94897.00
2022-11-25T11:39:25.749Z,94895.00
2022-11-25T11:39:37.290Z,94895.00
2022-11-25T11:39:48.578Z,94895.00
2022-11-25T11:40:00.308Z,94895.00
2022-11-25T11:40:11.652Z,94887.00
2022-11-25T11:40:23.196Z,94895.00
2022-11-25T11:40:34.506Z,94897.00
2022-11-25T11:40:46.093Z,94895.00
2022-11-25T11:40:57.380Z,94895.00
2022-11-25T11:41:08.932Z,94895.00
2022-11-25T11:41:20.217Z,94895.00
2022-11-25T11:41:31.780Z,94887.00
2022-11-25T11:41:43.075Z,94887.00
2022-11-25T11:41:54.609Z,94895.00
2022-11-25T11:42:05.889Z,94887.00
2022-11-25T11:42:17.437Z,94887.00
2022-11-25T11:42:28.729Z,94895.00
2022-11-25T11:42:40.264Z,94895.00
2022-11-25T11:42:51.548Z,94897.00
2022-11-25T11:43:03.103Z,94895.00
2022-11-25T11:43:14.396Z,94895.00
2022-11-25T11:43:25.940Z,94897.00
2022-11-25T11:43:37.239Z,94895.00
2022-11-25T11:43:48.768Z,94895.00
2022-11-25T11:44:00.053Z,94897.00
2022-11-25T11:44:11.608Z,94887.00
2022-11-25T11:44:22.899Z,94895.00
2022-11-25T11:44:34.877Z,94897.00
2022-11-25T11:44:46.760Z,94897.00
2022-11-25T11:44:58.040Z,94897.00
2022-11-25T11:45:09.587Z,94897.00
2022-11-25T11:45:20.871Z,94897.00
2022-11-25T11:45:32.399Z,94899.00
2022-11-25T11:45:43.683Z,94899.00
2022-11-25T11:45:55.411Z,94899.00
2022-11-25T11:46:06.705Z,94899.00
2022-11-25T11:46:18.305Z,94899.00
2022-11-25T11:46:29.678Z,94899.00
2022-11-25T11:46:41.314Z,94901.00
2022-11-25T11:46:52.702Z,94901.00
2022-11-25T11:47:04.532Z,94899.00
2022-11-25T11:47:15.824Z,94899.00
2022-11-25T11:47:27.365Z,94901.00
2022-11-25T11:47:38.659Z,94901.00
2022-11-25T11:47:50.221Z,94901.00
2022-11-25T11:48:01.508Z,94901.00
2022-11-25T11:48:13.144Z,94899.00
2022-11-25T11:48:24.426Z,94899.00
2022-11-25T11:48:35.968Z,94901.00
2022-11-25T11:48:51.567Z,94899.00
2022-11-25T11:48:59.172Z,94899.00
2022-11-25T11:49:10.463Z,94903.00
2022-11-25T11:49:25.068Z,94901.00
2022-11-25T11:49:33.941Z,94901.00
2022-11-25T11:49:45.228Z,94901.00
2022-11-25T11:49:56.775Z,94901.00
2022-11-25T11:50:08.068Z,94901.00
2022-11-25T11:50:19.614Z,94901.00
2022-11-25T11:50:30.898Z,94903.00
2022-11-25T11:50:42.440Z,94901.00
2022-11-25T11:50:53.724Z,94903.00
2022-11-25T11:51:05.336Z,94899.00
2022-11-25T11:51:16.622Z,94901.00
2022-11-25T11:51:28.160Z,94901.00
2022-11-25T11:51:39.428Z,94901.00
2022-11-25T11:51:50.960Z,94899.00
2022-11-25T11:52:02.243Z,94901.00
2022-11-25T11:52:13.779Z,94901.00
2022-11-25T11:52:25.064Z,94903.00
2022-11-25T11:52:36.607Z,94903.00
2022-11-25T11:52:47.881Z,94903.00
2022-11-25T11:52:59.446Z,94901.00
2022-11-25T11:53:10.735Z,94901.00
2022-11-25T11:53:22.280Z,94903.00
2022-11-25T11:53:33.557Z,94901.00
2022-11-25T11:53:45.089Z,94901.00
2022-11-25T11:53:56.382Z,94901.00
2022-11-25T11:54:07.955Z,94901.00
2022-11-25T11:54:19.243Z,94899.00
2022-11-25T11:54:30.783Z,94899.00
2022-11-25T11:54:42.062Z,94901.00
2022-11-25T11:54:53.625Z,94899.00
2022-11-25T11:55:04.917Z,94901.00
2022-11-25T11:55:16.464Z,94903.00
2022-11-25T11:55:27.754Z,94903.00
2022-11-25T11:55:39.310Z,94903.00
2022-11-25T11:56:11.854Z,94903.00
2022-11-25T11:56:34.068Z,94903.00
2022-11-25T11:56:35.217Z,94899.00
2022-11-25T11:56:38.339Z,94903.00
2022-11-25T11:56:54.997Z,94899.00
2022-11-25T11:57:01.551Z,94901.00
2022-11-25T11:57:12.837Z,94901.00
2022-11-25T11:57:24.410Z,94899.00
2022-11-25T11:57:35.693Z,94905.00
2022-11-25T11:57:47.229Z,94903.00
2022-11-25T11:57:58.518Z,94903.00
2022-11-25T11:58:10.062Z,94901.00
2022-11-25T11:58:21.338Z,94901.00
2022-11-25T11:58:32.891Z,94901.00
2022-11-25T11:58:44.186Z,94905.00
2022-11-25T11:58:55.731Z,94903.00
2022-11-25T11:59:07.014Z,94905.00
2022-11-25T11:59:18.573Z,94901.00
2022-11-25T11:59:29.845Z,94905.00
2022-11-25T11:59:41.390Z,94903.00
2022-11-25T11:59:52.689Z,94903.00
2022-11-25T12:00:04.243Z,94903.00
2022-11-25T12:00:15.543Z,94903.00
2022-11-25T12:00:27.098Z,94901.00
2022-11-25T12:00:38.384Z,94905.00
2022-11-25T12:00:49.938Z,94905.00
2022-11-25T12:01:01.234Z,94903.00
2022-11-25T12:01:12.789Z,94905.00
2022-11-25T12:01:24.081Z,94903.00
2022-11-25T12:01:35.726Z,94905.00
2022-11-25T12:01:47.141Z,94903.00
2022-11-25T12:01:58.826Z,94905.00
2022-11-25T12:02:10.258Z,94905.00
2022-11-25T12:02:22.114Z,94907.00
2022-11-25T12:02:33.572Z,94909.00
2022-11-25T12:02:45.285Z,94907.00
2022-11-25T12:02:56.726Z,94907.00
2022-11-25T12:03:08.406Z,94907.00
2022-11-25T12:03:19.746Z,94907.00
2022-11-25T12:03:31.369Z,94907.00
2022-11-25T12:03:42.772Z,94907.00
2022-11-25T12:03:54.655Z,94907.00
2022-11-25T12:04:06.017Z,94905.00
2022-11-25T12:04:17.568Z,94905.00
2022-11-25T12:04:28.865Z,94905.00
2022-11-25T12:04:40.451Z,94909.00
2022-11-25T12:04:51.754Z,94909.00
2022-11-25T12:05:03.297Z,94911.00
2022-11-25T12:05:14.572Z,94909.00
2022-11-25T12:05:26.106Z,94907.00
2022-11-25T12:05:37.407Z,94907.00
2022-11-25T12:05:48.952Z,94907.00
2022-11-25T12:06:00.236Z,94907.00
2022-11-25T12:06:11.785Z,94907.00
2022-11-25T12:06:23.100Z,94907.00
2022-11-25T12:06:34.701Z,94907.00
2022-11-25T12:06:45.996Z,94905.00
2022-11-25T12:06:57.603Z,94905.00
2022-11-25T12:07:08.974Z,94905.00
2022-11-25T12:07:20.621Z,94903.00
2022-11-25T12:07:32.047Z,94905.00
2022-11-25T12:07:43.719Z,94907.00
2022-11-25T12:07:55.178Z,94903.00
2022-11-25T12:08:06.805Z,94905.00
2022-11-25T12:08:18.087Z,94905.00
2022-11-25T12:08:29.627Z,94905.00
2022-11-25T12:08:40.909Z,94903.00
2022-11-25T12:08:52.455Z,94903.00
2022-11-25T12:09:03.748Z,94903.00
2022-11-25T12:09:15.309Z,94903.00
2022-11-25T12:09:26.595Z,94903.00
2022-11-25T12:09:38.145Z,94903.00
2022-11-25T12:09:49.433Z,94901.00
2022-11-25T12:10:00.975Z,94901.00
2022-11-25T12:10:12.322Z,94901.00
2022-11-25T12:10:23.879Z,94901.00
2022-11-25T12:10:35.177Z,94901.00
2022-11-25T12:10:46.746Z,94901.00
2022-11-25T12:10:58.041Z,94899.00
2022-11-25T12:11:09.582Z,94899.00
2022-11-25T12:11:20.858Z,94901.00
2022-11-25T12:11:32.393Z,94899.00
2022-11-25T12:11:43.712Z,94899.00
2022-11-25T12:11:55.255Z,94899.00
2022-11-25T12:12:06.533Z,94897.00
2022-11-25T12:12:18.085Z,94897.00
2022-11-25T12:12:29.383Z,94899.00
2022-11-25T12:12:40.926Z,94897.00
2022-11-25T12:12:52.220Z,94895.00
2022-11-25T12:13:03.751Z,94895.00
2022-11-25T12:13:15.027Z,94895.00
2022-11-25T12:13:26.558Z,94897.00
2022-11-25T12:13:37.859Z,94899.00
2022-11-25T12:13:49.398Z,94899.00
2022-11-25T12:14:01.288Z,94897.00
2022-11-25T12:14:12.959Z,94897.00
2022-11-25T12:14:24.233Z,94897.00
2022-11-25T12:14:35.980Z,94899.00
2022-11-25T12:14:47.374Z,94897.00
2022-11-25T12:14:58.920Z,94899.00
2022-11-25T12:15:10.192Z,94897.00
2022-11-25T12:15:21.734Z,94897.00
2022-11-25T12:15:33.018Z,94895.00
2022-11-25T12:15:44.573Z,94899.00
2022-11-25T12:15:55.974Z,94897.00
2022-11-25T12:16:07.613Z,94897.00
2022-11-25T12:16:19.016Z,94899.00
2022-11-25T12:16:30.792Z,94899.00
2022-11-25T12:16:42.196Z,94899.00
2022-11-25T12:16:53.937Z,94899.00
2022-11-25T12:17:05.306Z,94899.00
2022-11-25T12:17:16.850Z,94899.00
2022-11-25T12:17:28.141Z,94899.00
2022-11-25T12:17:39.682Z,94899.00
2022-11-25T12:17:50.972Z,94899.00
2022-11-25T12:18:02.524Z,94897.00
2022-11-25T12:18:13.823Z,94901.00
2022-11-25T12:18:25.373Z,94901.00
2022-11-25T12:18:36.665Z,94897.00
2022-11-25T12:18:48.218Z,94897.00
2022-11-25T12:18:59.498Z,94887.00
2022-11-25T12:19:11.035Z,94897.00
2022-11-25T12:19:22.319Z,94897.00
2022-11-25T12:19:33.863Z,94897.00
2022-11-25T12:19:45.151Z,94899.00
2022-11-25T12:19:56.693Z,94897.00
2022-11-25T12:20:07.984Z,94897.00
2022-11-25T12:20:19.524Z,94895.00
2022-11-25T12:20:30.810Z,94895.00
2022-11-25T12:20:42.364Z,94887.00
2022-11-25T12:20:53.656Z,94887.00
2022-11-25T12:21:05.197Z,94885.00
2022-11-25T12:21:16.478Z,94885.00
2022-11-25T12:21:28.027Z,94885.00
2022-11-25T12:21:42.028Z,94883.00
2022-11-25T12:21:49.479Z,94881.00
2022-11-25T12:22:00.836Z,94883.00
2022-11-25T12:22:12.378Z,94881.00
2022-11-25T12:22:23.674Z,94880.00
2022-11-25T12:22:35.235Z,94880.00
2022-11-25T12:22:46.518Z,94883.00
2022-11-25T12:22:58.055Z,94883.00
2022-11-25T12:23:09.329Z,94883.00
2022-11-25T12:23:20.885Z,94881.00
2022-11-25T12:23:32.175Z,94881.00
2022-11-25T12:23:43.725Z,94880.00
2022-11-25T12:23:54.997Z,94880.00
2022-11-25T12:24:06.541Z,94880.00
2022-11-25T12:24:17.841Z,94881.00
2022-11-25T12:24:29.403Z,94880.00
2022-11-25T12:24:40.686Z,94878.00
2022-11-25T12:24:52.266Z,94881.00
2022-11-25T12:25:03.565Z,94880.00
2022-11-25T12:25:15.118Z,94878.00
2022-11-25T12:25:26.408Z,94876.00
2022-11-25T12:25:37.957Z,94878.00
2022-11-25T12:25:49.229Z,94880.00
2022-11-25T12:26:00.774Z,94880.00
2022-11-25T12:26:12.063Z,94876.00
2022-11-25T12:26:23.594Z,94878.00
2022-11-25T12:26:34.881Z,94878.00
2022-11-25T12:26:46.437Z,94876.00
2022-11-25T12:26:57.730Z,94876.00
2022-11-25T12:27:09.464Z,94878.00
2022-11-25T12:27:20.742Z,94876.00
2022-11-25T12:27:32.359Z,94876.00
2022-11-25T12:27:43.648Z,94878.00
2022-11-25T12:27:55.192Z,94874.00
2022-11-25T12:28:06.468Z,94876.00
2022-11-25T12:28:18.009Z,94880.00
2022-11-25T12:28:29.294Z,94880.00
2022-11-25T12:28:40.835Z,94880.00
2022-11-25T12:28:52.124Z,94878.00
2022-11-25T12:29:03.685Z,94878.00
2022-11-25T12:29:14.977Z,94880.00
2022-11-25T12:29:26.547Z,94878.00
2022-11-25T12:29:37.825Z,94878.00
2022-11-25T12:29:49.360Z,94878.00
2022-11-25T12:30:00.656Z,94876.00
2022-11-25T12:30:12.335Z,94876.00
2022-11-25T12:30:23.690Z,94876.00
2022-11-25T12:30:35.232Z,94878.00
2022-11-25T12:30:46.541Z,94876.00
2022-11-25T12:31:03.341Z,94876.00
2022-11-25T12:31:10.086Z,94876.00
2022-11-25T12:31:21.452Z,94874.00
2022-11-25T12:31:33.118Z,94876.00
2022-11-25T12:31:44.532Z,94874.00
2022-11-25T12:31:56.197Z,94872.00
2022-11-25T12:32:07.639Z,94874.00
2022-11-25T12:32:19.251Z,94872.00
2022-11-25T12:32:30.533Z,94870.00
2022-11-25T12:32:42.080Z,94874.00
2022-11-25T12:32:53.366Z,94874.00
2022-11-25T12:33:04.908Z,94870.00
2022-11-25T12:33:16.213Z,94874.00
2022-11-25T12:33:27.817Z,94874.00
2022-11-25T12:33:39.106Z,94872.00
2022-11-25T12:33:50.650Z,94872.00
2022-11-25T12:34:01.947Z,94872.00
2022-11-25T12:34:13.501Z,94870.00
2022-11-25T12:34:24.795Z,94870.00
2022-11-25T12:34:36.664Z,94870.00
2022-11-25T12:34:48.470Z,94872.00
2022-11-25T12:34:59.758Z,94872.00
2022-11-25T12:35:11.308Z,94870.00
2022-11-25T12:35:22.600Z,94868.00
2022-11-25T12:35:34.167Z,94872.00
2022-11-25T12:35:45.457Z,94868.00
2022-11-25T12:35:57.011Z,94870.00
2022-11-25T12:36:08.319Z,94870.00
2022-11-25T12:36:19.871Z,94872.00
2022-11-25T12:36:31.157Z,94870.00
2022-11-25T12:36:42.706Z,94868.00
2022-11-25T12:36:54.007Z,94868.00
2022-11-25T12:37:08.349Z,94868.00
2022-11-25T12:37:17.490Z,94866.00
2022-11-25T12:37:28.837Z,94868.00
2022-11-25T12:37:40.404Z,94866.00
2022-11-25T12:37:51.770Z,94866.00
2022-11-25T12:38:03.307Z,94866.00
2022-11-25T12:38:14.594Z,94866.00